MDT,Max TemperatureF,Mean TemperatureF,Min TemperatureF,Max Dew PointF,MeanDew PointF,Min DewpointF,Max Humidity, Mean Humidity, Min Humidity, Max Sea Level PressureIn, Mean Sea Level PressureIn, Min Sea Level PressureIn, Max VisibilityMiles, Mean VisibilityMiles, Min VisibilityMiles, Max Wind SpeedMPH, Mean Wind SpeedMPH, Max Gust SpeedMPH,PrecipitationIn, CloudCover, Events, WindDirDegrees
2012-10-1,73,54,34,38,34,29,89,55,20,30.39,30.22,30.13,10,10,10,17,2,21,0.00,0,,291
2012-10-2,78,55,31,36,29,21,89,52,14,30.22,30.04,29.91,10,10,10,17,4,23,0.00,0,,270
2012-10-3,76,54,31,32,25,7,89,49,8,30.16,29.98,29.86,10,10,10,25,8,32,0.00,0,,273
2012-10-4,64,43,22,27,22,16,88,53,17,30.27,30.14,30.03,10,10,10,14,3,20,0.00,0,,291
2012-10-5,57,42,26,26,18,11,75,46,17,30.21,30.10,29.96,10,10,10,15,6,21,0.00,1,,285
2012-10-6,50,35,19,22,15,9,84,53,21,30.36,30.24,30.13,10,10,10,15,4,18,0.00,0,,286
2012-10-7,54,34,13,15,9,1,84,48,12,30.34,30.25,30.19,10,10,10,16,3,20,0.00,0,,254
2012-10-8,67,42,16,13,8,-3,74,40,6,30.26,30.08,29.94,10,10,10,22,6,28,0.00,0,,251
2012-10-9,70,47,24,25,16,11,63,37,10,30.10,30.01,29.95,10,10,10,26,5,35,0.00,0,,270
2012-10-10,73,48,22,32,22,15,84,49,13,30.22,30.07,29.96,10,10,10,20,4,25,0.00,1,,252
2012-10-11,72,52,31,32,29,27,78,49,20,30.09,30.00,29.93,10,10,10,13,2,18,0.00,2,,267
2012-10-12,55,44,33,47,36,27,85,67,48,30.14,30.01,29.94,10,9,2,25,5,33,0.42,5,Rain-Thunderstorm,219
2012-10-13,50,45,39,42,38,35,96,84,71,30.29,30.12,29.99,10,10,5,13,4,15,0.09,8,Rain,249
2012-10-14,63,49,34,41,36,32,92,62,32,30.40,30.30,30.22,10,10,10,13,3,17,0.00,3,,248
2012-10-15,69,49,28,36,30,25,92,57,22,30.28,30.13,30.01,10,10,10,20,5,28,0.00,0,,271
2012-10-16,71,50,29,43,32,23,92,59,26,30.08,29.86,29.63,10,10,7,37,10,53,0.05,4,Rain-Thunderstorm,265
2012-10-17,53,42,30,26,14,5,70,42,14,30.22,30.03,29.79,10,10,10,29,12,35,0.00,0,,275
2012-10-18,58,39,20,21,16,10,84,50,15,30.39,30.27,30.20,10,10,10,17,4,25,0.00,0,,251
2012-10-19,68,44,20,27,21,16,84,50,16,30.32,30.13,29.99,10,10,10,18,4,22,0.00,0,,249
2012-10-20,74,50,26,29,22,17,85,49,13,29.97,29.82,29.69,10,10,10,25,8,33,0.00,3,,232
2012-10-21,71,49,26,28,23,19,81,48,15,29.88,29.78,29.71,10,10,10,26,7,36,0.00,2,,201
2012-10-22,68,55,41,33,30,28,58,41,24,29.88,29.71,29.59,10,10,10,35,14,43,0.00,4,,206
2012-10-23,65,52,38,30,28,24,55,39,22,29.85,29.71,29.56,10,10,10,32,14,45,0.00,4,,255
2012-10-24,38,31,24,31,28,21,92,76,59,30.18,29.95,29.81,10,4,0,14,5,16,0.16,8,Fog-Snow,267
2012-10-25,38,25,12,28,20,9,92,72,52,30.41,30.21,30.11,10,6,0,22,5,28,0.17,6,Fog-Snow,244
2012-10-26,36,28,19,22,19,16,84,64,44,30.55,30.43,30.27,10,10,10,10,2,14,0.00,6,,280
2012-10-27,49,39,29,28,22,17,72,51,29,30.29,30.21,30.14,10,10,10,22,5,28,0.00,6,,224
2012-10-28,54,44,33,33,30,27,89,65,41,30.27,30.19,30.10,10,10,10,14,3,16,0.00,5,,87
2012-10-29,64,46,27,34,29,25,92,60,27,30.33,30.23,30.14,10,10,10,16,4,20,0.00,1,Snow,253
2012-10-30,65,44,23,32,26,20,88,54,20,30.36,30.25,30.16,10,10,9,15,2,20,0.00,0,,258
2012-10-31,66,44,22,29,25,20,92,56,19,30.34,30.23,30.14,10,10,10,6,0,8,0.00,0,,310